createdAt,value
2017-09-29T00:02:23.834Z,74.40
2017-09-29T00:04:57.467Z,74.50
2017-09-29T00:07:31.037Z,74.40
2017-09-29T00:10:04.649Z,74.50
2017-09-29T00:12:38.307Z,74.60
2017-09-29T00:15:11.813Z,74.60
2017-09-29T00:17:45.370Z,74.70
2017-09-29T00:20:19.114Z,74.60
2017-09-29T00:22:52.767Z,74.50
2017-09-29T00:25:26.462Z,74.60
2017-09-29T00:28:00.072Z,74.60
2017-09-29T00:30:33.809Z,74.70
2017-09-29T00:33:07.574Z,74.70
2017-09-29T00:35:41.266Z,74.70
2017-09-29T00:38:14.879Z,74.80
2017-09-29T00:40:48.639Z,75.40
2017-09-29T00:43:23.061Z,74.80
2017-09-29T00:45:56.713Z,75.50
2017-09-29T00:48:30.420Z,74.90
2017-09-29T00:51:04.814Z,75.20
2017-09-29T00:53:39.114Z,75.00
2017-09-29T00:56:12.862Z,75.00
2017-09-29T00:58:46.544Z,74.90
2017-09-29T01:01:20.250Z,74.90
2017-09-29T01:03:54.154Z,74.90
2017-09-29T01:06:28.791Z,74.90
2017-09-29T01:09:02.487Z,74.80
2017-09-29T01:11:36.259Z,74.80
2017-09-29T01:14:09.854Z,74.80
2017-09-29T01:16:43.358Z,75.00
2017-09-29T01:19:17.139Z,75.10
2017-09-29T01:21:50.690Z,75.00
2017-09-29T01:24:25.178Z,74.90
2017-09-29T01:26:58.928Z,74.90
2017-09-29T01:29:32.727Z,74.80
2017-09-29T01:32:06.463Z,74.80
2017-09-29T01:34:39.994Z,74.90
2017-09-29T01:37:14.603Z,75.10
2017-09-29T01:39:48.139Z,75.10
2017-09-29T01:42:21.762Z,75.20
2017-09-29T01:44:55.453Z,75.20
2017-09-29T01:47:29.053Z,75.30
2017-09-29T01:50:02.559Z,75.10
2017-09-29T01:52:36.280Z,75.20
2017-09-29T01:55:09.918Z,75.30
2017-09-29T01:57:43.542Z,75.20
2017-09-29T02:00:17.120Z,75.20
2017-09-29T02:02:50.877Z,75.10
2017-09-29T02:05:24.482Z,75.10
2017-09-29T02:07:58.079Z,75.10
2017-09-29T02:10:31.671Z,75.30
2017-09-29T02:13:05.267Z,75.40
2017-09-29T02:15:38.814Z,75.50
2017-09-29T02:18:12.374Z,75.50
2017-09-29T02:20:45.922Z,75.40
2017-09-29T02:23:19.572Z,75.60
2017-09-29T02:25:53.175Z,75.70
2017-09-29T02:28:26.893Z,75.70
2017-09-29T02:31:00.361Z,75.80
2017-09-29T02:33:33.935Z,75.70
2017-09-29T02:36:08.331Z,75.60
2017-09-29T02:38:42.000Z,75.60
2017-09-29T02:41:15.608Z,75.60
2017-09-29T02:43:49.311Z,75.60
2017-09-29T02:46:23.102Z,75.80
2017-09-29T02:48:56.851Z,75.90
2017-09-29T02:51:30.410Z,75.70
2017-09-29T02:54:04.002Z,75.80
2017-09-29T02:56:40.855Z,75.70
2017-09-29T02:59:16.873Z,75.90
2017-09-29T03:01:52.000Z,75.90
2017-09-29T03:04:27.071Z,76.00
2017-09-29T03:07:00.455Z,76.10
2017-09-29T03:09:34.319Z,76.20
2017-09-29T03:12:08.024Z,76.10
2017-09-29T03:14:42.547Z,76.10
2017-09-29T03:17:16.234Z,76.30
2017-09-29T03:19:49.946Z,76.40
2017-09-29T03:22:23.759Z,76.40
2017-09-29T03:24:57.255Z,76.30
2017-09-29T03:27:30.710Z,76.60
2017-09-29T03:30:04.479Z,76.80
2017-09-29T03:32:38.254Z,76.90
2017-09-29T03:35:12.001Z,77.10
2017-09-29T03:37:46.442Z,77.10
2017-09-29T03:40:20.094Z,77.10
2017-09-29T03:42:53.638Z,77.30
2017-09-29T03:45:27.243Z,77.20
2017-09-29T03:48:01.663Z,78.10
2017-09-29T03:50:36.541Z,77.30
2017-09-29T03:53:11.736Z,77.50
2017-09-29T03:55:59.650Z,77.70
2017-09-29T03:58:41.146Z,77.90
2017-09-29T04:01:14.667Z,77.90
2017-09-29T04:03:48.294Z,78.00
2017-09-29T04:06:21.791Z,78.00
2017-09-29T04:08:55.494Z,78.00
2017-09-29T04:11:29.098Z,78.10
2017-09-29T04:14:02.556Z,78.30
2017-09-29T04:16:36.075Z,78.50
2017-09-29T04:19:09.709Z,78.50
2017-09-29T04:21:43.254Z,78.30
2017-09-29T04:24:16.903Z,78.50
2017-09-29T04:26:50.697Z,78.30
2017-09-29T04:29:24.454Z,79.00
2017-09-29T04:31:58.309Z,78.40
2017-09-29T04:34:33.371Z,78.50
2017-09-29T04:37:07.754Z,78.70
2017-09-29T04:39:42.255Z,78.70
2017-09-29T04:42:15.886Z,78.80
2017-09-29T04:44:49.485Z,78.80
2017-09-29T04:47:23.303Z,78.90
2017-09-29T04:49:57.522Z,78.80
2017-09-29T04:52:31.074Z,78.90
2017-09-29T04:55:04.695Z,78.80
2017-09-29T04:57:38.415Z,78.80
2017-09-29T05:00:11.994Z,78.80
2017-09-29T05:02:45.723Z,79.10
2017-09-29T05:05:19.431Z,79.20
2017-09-29T05:07:52.933Z,79.10
2017-09-29T05:10:26.638Z,79.00
2017-09-29T05:13:00.241Z,79.20
2017-09-29T05:15:33.814Z,79.30
2017-09-29T05:18:07.290Z,79.40
2017-09-29T05:20:41.715Z,79.60
2017-09-29T05:23:15.351Z,79.50
2017-09-29T05:25:48.854Z,79.50
2017-09-29T05:28:22.447Z,79.50
2017-09-29T05:30:56.158Z,79.50
2017-09-29T05:33:31.187Z,79.40
2017-09-29T05:36:04.784Z,79.40
2017-09-29T05:38:39.208Z,79.70
2017-09-29T05:41:13.321Z,79.60
2017-09-29T05:43:47.336Z,79.60
2017-09-29T05:46:20.910Z,79.70
2017-09-29T05:48:55.148Z,79.90
2017-09-29T05:51:28.748Z,79.90
2017-09-29T05:54:02.348Z,80.00
2017-09-29T05:56:35.898Z,79.90
2017-09-29T05:59:09.650Z,80.10
2017-09-29T06:01:43.450Z,80.00
2017-09-29T06:04:17.039Z,80.00
2017-09-29T06:06:50.745Z,79.90
2017-09-29T06:09:24.325Z,79.90
2017-09-29T06:11:58.058Z,80.00
2017-09-29T06:14:31.873Z,80.00
2017-09-29T06:17:05.565Z,80.10
2017-09-29T06:19:39.785Z,80.10
2017-09-29T06:22:14.209Z,80.30
2017-09-29T06:24:47.906Z,80.30
2017-09-29T06:27:21.419Z,80.20
2017-09-29T06:29:55.075Z,81.10
2017-09-29T06:32:28.706Z,80.30
2017-09-29T06:35:02.306Z,80.30
2017-09-29T06:37:36.854Z,80.70
2017-09-29T06:40:10.539Z,80.60
2017-09-29T06:42:44.040Z,80.60
2017-09-29T06:45:17.595Z,80.60
2017-09-29T06:47:51.958Z,80.70
2017-09-29T06:50:25.957Z,80.80
2017-09-29T06:52:59.767Z,80.70
2017-09-29T06:55:33.579Z,81.30
2017-09-29T06:58:07.901Z,80.50
2017-09-29T07:00:42.309Z,80.70
2017-09-29T07:03:16.023Z,80.70
2017-09-29T07:05:50.413Z,81.10
2017-09-29T07:08:23.894Z,80.80
2017-09-29T07:10:57.444Z,80.60
2017-09-29T07:13:31.255Z,80.70
2017-09-29T07:16:04.845Z,80.60
2017-09-29T07:18:38.382Z,80.60
2017-09-29T07:21:12.252Z,80.50
2017-09-29T07:23:45.948Z,80.60
2017-09-29T07:26:21.172Z,80.70
2017-09-29T07:28:57.295Z,80.90
2017-09-29T07:31:32.231Z,80.50
2017-09-29T07:34:05.753Z,80.60
2017-09-29T07:36:39.384Z,80.90
2017-09-29T07:39:13.042Z,80.90
2017-09-29T07:41:46.799Z,80.90
2017-09-29T07:44:20.603Z,81.00
2017-09-29T07:46:54.399Z,80.90
2017-09-29T07:49:29.387Z,80.80
2017-09-29T07:52:03.855Z,80.60
2017-09-29T07:54:37.830Z,81.00
2017-09-29T07:57:11.771Z,81.80
2017-09-29T07:59:45.466Z,81.30
2017-09-29T08:02:19.375Z,81.30
2017-09-29T08:04:54.212Z,80.90
2017-09-29T08:07:27.812Z,80.90
2017-09-29T08:10:02.110Z,81.20
2017-09-29T08:12:35.799Z,81.20
2017-09-29T08:15:09.541Z,81.10
2017-09-29T08:17:44.263Z,80.80
2017-09-29T08:20:18.798Z,81.20
2017-09-29T08:22:53.290Z,80.40
2017-09-29T08:25:27.822Z,80.30
2017-09-29T08:28:01.378Z,80.30
2017-09-29T08:30:34.928Z,80.20
2017-09-29T08:33:08.379Z,80.10
2017-09-29T08:35:42.714Z,80.40
2017-09-29T08:38:16.542Z,80.40
2017-09-29T08:40:50.226Z,80.40
2017-09-29T08:43:23.808Z,80.00
2017-09-29T08:45:57.451Z,79.80
2017-09-29T08:48:31.519Z,79.80
2017-09-29T08:51:05.274Z,79.80
2017-09-29T08:53:38.968Z,80.10
2017-09-29T08:56:12.573Z,80.00
2017-09-29T08:58:46.167Z,80.10
2017-09-29T09:01:19.722Z,80.00
2017-09-29T09:03:53.379Z,79.80
2017-09-29T09:06:27.185Z,79.40
2017-09-29T09:09:01.693Z,79.90
2017-09-29T09:11:35.395Z,79.80
2017-09-29T09:14:09.016Z,79.80
2017-09-29T09:16:43.403Z,79.60
2017-09-29T09:19:17.747Z,79.60
2017-09-29T09:21:51.550Z,79.70
2017-09-29T09:24:25.257Z,79.50
2017-09-29T09:26:58.938Z,79.40
2017-09-29T09:29:32.547Z,79.10
2017-09-29T09:32:06.151Z,79.20
2017-09-29T09:34:39.756Z,79.30
2017-09-29T09:37:13.301Z,79.50
2017-09-29T09:39:47.263Z,79.60
2017-09-29T09:42:20.967Z,79.50
2017-09-29T09:44:54.667Z,79.30
2017-09-29T09:47:28.275Z,79.30
2017-09-29T09:50:01.875Z,79.30
2017-09-29T09:52:35.471Z,79.40
2017-09-29T09:55:09.081Z,79.40
2017-09-29T09:57:42.787Z,79.30
2017-09-29T10:00:16.358Z,79.20
2017-09-29T10:02:50.806Z,79.30
2017-09-29T10:05:24.259Z,79.20
2017-09-29T10:07:57.799Z,79.40
2017-09-29T10:10:32.077Z,79.40
2017-09-29T10:13:05.606Z,79.30
2017-09-29T10:15:39.127Z,79.30
2017-09-29T10:18:12.684Z,79.30
2017-09-29T10:20:46.376Z,79.20
2017-09-29T10:23:19.899Z,79.30
2017-09-29T10:25:53.363Z,79.30
2017-09-29T10:28:26.902Z,79.30
2017-09-29T10:31:00.665Z,79.00
2017-09-29T10:33:34.181Z,78.80
2017-09-29T10:36:08.403Z,78.90
2017-09-29T10:38:42.702Z,78.70
2017-09-29T10:41:16.922Z,78.80
2017-09-29T10:43:51.143Z,78.90
2017-09-29T10:46:25.358Z,78.90
2017-09-29T10:48:58.929Z,78.80
2017-09-29T10:51:32.373Z,78.80
2017-09-29T10:54:05.933Z,78.90
2017-09-29T10:56:39.379Z,78.80
2017-09-29T10:59:12.940Z,78.70
2017-09-29T11:01:46.467Z,78.50
2017-09-29T11:04:20.857Z,78.40
2017-09-29T11:06:54.400Z,78.40
2017-09-29T11:09:28.702Z,78.10
2017-09-29T11:12:02.171Z,78.00
2017-09-29T11:14:35.690Z,78.20
2017-09-29T11:17:09.224Z,78.00
2017-09-29T11:19:42.746Z,77.90
2017-09-29T11:22:16.291Z,77.90
2017-09-29T11:24:49.874Z,77.80
2017-09-29T11:27:23.399Z,77.60
2017-09-29T11:29:57.809Z,77.20
2017-09-29T11:32:31.402Z,77.20
2017-09-29T11:35:04.921Z,77.10
2017-09-29T11:37:39.323Z,77.10
2017-09-29T11:40:12.897Z,77.00
2017-09-29T11:42:46.414Z,77.00
2017-09-29T11:45:20.051Z,77.10
2017-09-29T11:47:53.526Z,77.00
2017-09-29T11:50:27.129Z,76.90
2017-09-29T11:53:00.833Z,76.80
2017-09-29T11:55:34.491Z,76.70
2017-09-29T11:58:07.947Z,76.50
2017-09-29T12:00:42.255Z,76.60
2017-09-29T12:03:15.741Z,76.60
2017-09-29T12:05:49.331Z,76.50
2017-09-29T12:08:23.554Z,76.40
2017-09-29T12:10:57.754Z,76.40
2017-09-29T12:13:31.787Z,76.40
2017-09-29T12:16:06.182Z,76.50
2017-09-29T12:18:39.727Z,76.50
2017-09-29T12:21:13.377Z,76.40
2017-09-29T12:23:47.037Z,76.20
2017-09-29T12:26:20.554Z,76.20
2017-09-29T12:28:55.375Z,76.30
2017-09-29T12:31:29.630Z,76.20
2017-09-29T12:34:03.171Z,76.20
2017-09-29T12:36:36.705Z,76.10
2017-09-29T12:39:10.239Z,76.00
2017-09-29T12:41:44.446Z,76.00
2017-09-29T12:44:17.978Z,76.00
2017-09-29T12:46:51.490Z,75.80
2017-09-29T12:49:24.945Z,75.70
2017-09-29T12:51:59.366Z,75.90
2017-09-29T12:54:32.955Z,75.80
2017-09-29T12:57:06.550Z,75.90
2017-09-29T12:59:40.562Z,75.90
2017-09-29T13:02:14.013Z,76.50
2017-09-29T13:04:47.462Z,75.80
2017-09-29T13:07:20.890Z,75.90
2017-09-29T13:09:55.210Z,75.80
2017-09-29T13:12:28.727Z,75.80
2017-09-29T13:15:03.101Z,75.60
2017-09-29T13:17:37.318Z,75.60
2017-09-29T13:20:11.758Z,75.50
2017-09-29T13:22:45.334Z,75.50
2017-09-29T13:25:18.854Z,75.40
2017-09-29T13:27:53.181Z,75.50
2017-09-29T13:30:27.393Z,75.50
2017-09-29T13:33:00.880Z,75.30
2017-09-29T13:35:34.557Z,75.50
2017-09-29T13:38:08.082Z,75.40
2017-09-29T13:40:42.493Z,75.20
2017-09-29T13:43:16.710Z,75.40
2017-09-29T13:45:51.133Z,75.30
2017-09-29T13:48:24.646Z,75.30
2017-09-29T13:50:58.120Z,75.20
2017-09-29T13:53:31.717Z,75.10
2017-09-29T13:56:05.230Z,75.10
2017-09-29T13:58:38.819Z,75.00
2017-09-29T14:01:12.374Z,75.00
2017-09-29T14:03:45.989Z,75.00
2017-09-29T14:06:19.445Z,75.00
2017-09-29T14:08:52.970Z,74.90
2017-09-29T14:11:26.835Z,74.80
2017-09-29T14:14:01.253Z,74.60
2017-09-29T14:16:34.781Z,74.60
2017-09-29T14:19:09.094Z,74.60
2017-09-29T14:21:42.558Z,74.60
2017-09-29T14:24:16.761Z,74.60
2017-09-29T14:26:50.385Z,74.60
2017-09-29T14:29:23.834Z,74.80
2017-09-29T14:31:57.362Z,74.80
2017-09-29T14:34:31.782Z,74.90
2017-09-29T14:37:06.007Z,74.80
2017-09-29T14:39:39.462Z,74.70
2017-09-29T14:42:13.016Z,74.80
2017-09-29T14:44:47.318Z,74.60
2017-09-29T14:47:20.901Z,74.60
2017-09-29T14:49:54.413Z,74.40
2017-09-29T14:52:28.077Z,74.30
2017-09-29T14:55:02.425Z,74.30
2017-09-29T14:57:36.125Z,74.30
2017-09-29T15:00:09.575Z,74.20
2017-09-29T15:02:43.869Z,74.10
2017-09-29T15:05:18.078Z,74.10
2017-09-29T15:07:51.763Z,74.10
2017-09-29T15:10:25.293Z,74.10
2017-09-29T15:12:59.694Z,73.90
2017-09-29T15:15:33.252Z,73.90
2017-09-29T15:18:07.506Z,73.80
2017-09-29T15:20:41.718Z,73.70
2017-09-29T15:23:15.267Z,73.60
2017-09-29T15:25:48.862Z,73.60
2017-09-29T15:28:22.298Z,73.60
2017-09-29T15:30:55.754Z,73.40
2017-09-29T15:33:29.407Z,73.40
2017-09-29T15:36:02.906Z,73.20
2017-09-29T15:38:36.438Z,73.10
2017-09-29T15:41:10.087Z,73.10
2017-09-29T15:43:43.798Z,73.10
2017-09-29T15:46:17.343Z,73.00
2017-09-29T15:48:50.867Z,73.00
2017-09-29T15:51:24.399Z,72.80
2017-09-29T15:53:57.836Z,72.70
2017-09-29T15:56:31.269Z,72.80
2017-09-29T15:59:05.629Z,72.90
2017-09-29T16:01:39.165Z,72.90
2017-09-29T16:04:13.446Z,73.10
2017-09-29T16:06:47.010Z,73.10
2017-09-29T16:09:20.597Z,73.10
2017-09-29T16:11:54.999Z,72.90
2017-09-29T16:14:29.288Z,73.40
2017-09-29T16:17:03.498Z,73.70
2017-09-29T16:19:37.915Z,73.80
2017-09-29T16:22:11.434Z,73.80
2017-09-29T16:24:45.734Z,74.00
2017-09-29T16:27:19.934Z,74.30
2017-09-29T16:29:53.470Z,74.30
2017-09-29T16:32:26.973Z,74.40
2017-09-29T16:35:00.614Z,74.60
2017-09-29T16:37:34.049Z,74.70
2017-09-29T16:40:08.486Z,74.90
2017-09-29T16:42:41.961Z,74.90
2017-09-29T16:45:16.220Z,75.20
2017-09-29T16:47:49.851Z,75.20
2017-09-29T16:50:23.531Z,75.40
2017-09-29T16:52:56.988Z,75.40
2017-09-29T16:55:30.504Z,75.50
2017-09-29T16:58:04.015Z,75.60
2017-09-29T17:00:38.310Z,75.90
2017-09-29T17:03:12.715Z,76.00
2017-09-29T17:05:46.218Z,75.90
2017-09-29T17:08:19.841Z,76.20
2017-09-29T17:10:53.508Z,76.30
2017-09-29T17:13:27.082Z,76.30
2017-09-29T17:16:00.622Z,76.40
2017-09-29T17:18:34.086Z,76.40
2017-09-29T17:21:07.741Z,76.50
2017-09-29T17:23:41.326Z,76.50
2017-09-29T17:26:15.734Z,76.60
2017-09-29T17:28:49.937Z,76.70
2017-09-29T17:31:23.705Z,76.60
2017-09-29T17:33:57.334Z,76.70
2017-09-29T17:36:31.799Z,76.60
2017-09-29T17:39:05.242Z,76.50
2017-09-29T17:41:38.791Z,76.50
2017-09-29T17:44:13.193Z,76.70
2017-09-29T17:46:46.734Z,76.70
2017-09-29T17:49:21.099Z,76.70
2017-09-29T17:51:54.638Z,76.60
2017-09-29T17:54:29.046Z,76.50
2017-09-29T17:57:02.575Z,76.50
2017-09-29T17:59:36.202Z,76.50
2017-09-29T18:02:09.742Z,76.50
2017-09-29T18:04:43.999Z,76.50
2017-09-29T18:07:17.463Z,76.50
2017-09-29T18:09:51.033Z,76.50
2017-09-29T18:12:24.583Z,76.50
2017-09-29T18:14:58.842Z,76.40
2017-09-29T18:17:32.506Z,76.30
2017-09-29T18:20:06.154Z,76.30
2017-09-29T18:22:39.666Z,76.30
2017-09-29T18:25:13.186Z,76.30
2017-09-29T18:27:46.766Z,76.30
2017-09-29T18:30:21.188Z,76.10
2017-09-29T18:32:54.771Z,76.10
2017-09-29T18:35:28.346Z,76.10
2017-09-29T18:38:01.801Z,76.30
2017-09-29T18:40:35.373Z,76.20
2017-09-29T18:43:08.914Z,76.10
2017-09-29T18:45:43.127Z,76.20
2017-09-29T18:48:16.603Z,75.90
2017-09-29T18:50:50.195Z,76.00
2017-09-29T18:53:24.614Z,75.90
2017-09-29T18:55:58.134Z,75.80
2017-09-29T18:58:31.586Z,75.70
2017-09-29T19:01:05.122Z,75.70
2017-09-29T19:03:38.806Z,75.60
2017-09-29T19:06:13.015Z,75.50
2017-09-29T19:08:47.242Z,75.70
2017-09-29T19:11:20.826Z,75.60
2017-09-29T19:13:54.487Z,75.50
2017-09-29T19:16:27.934Z,75.50
2017-09-29T19:19:01.522Z,75.50
2017-09-29T19:21:34.962Z,75.50
2017-09-29T19:24:09.138Z,75.50
2017-09-29T19:26:42.646Z,75.30
2017-09-29T19:29:16.326Z,75.40
2017-09-29T19:31:49.983Z,75.20
2017-09-29T19:34:24.265Z,75.30
2017-09-29T19:36:58.494Z,75.10
2017-09-29T19:39:32.706Z,75.00
2017-09-29T19:42:06.217Z,75.00
2017-09-29T19:44:39.739Z,75.00
2017-09-29T19:47:14.014Z,75.00
2017-09-29T19:49:48.210Z,75.00
2017-09-29T19:52:21.797Z,75.00
2017-09-29T19:54:55.476Z,74.90
2017-09-29T19:57:28.911Z,74.90
2017-09-29T20:00:02.454Z,74.80
2017-09-29T20:02:35.894Z,74.90
2017-09-29T20:05:09.564Z,74.90
2017-09-29T20:07:42.999Z,74.90
2017-09-29T20:10:16.551Z,74.80
2017-09-29T20:12:49.982Z,75.10
2017-09-29T20:15:23.431Z,75.10
2017-09-29T20:17:56.951Z,74.80
2017-09-29T20:20:30.384Z,75.10
2017-09-29T20:23:03.898Z,75.20
2017-09-29T20:25:37.554Z,75.10
2017-09-29T20:28:11.526Z,75.10
2017-09-29T20:30:45.129Z,75.20
2017-09-29T20:33:19.531Z,75.00
2017-09-29T20:35:53.058Z,75.00
2017-09-29T20:38:26.498Z,74.90
2017-09-29T20:40:59.986Z,74.90
2017-09-29T20:43:33.459Z,74.70
2017-09-29T20:46:07.814Z,75.10
2017-09-29T20:48:41.369Z,74.90
2017-09-29T20:51:14.962Z,74.80
2017-09-29T20:53:48.542Z,74.80
2017-09-29T20:56:22.010Z,75.00
2017-09-29T20:58:55.451Z,74.90
2017-09-29T21:01:29.801Z,75.00
2017-09-29T21:04:04.790Z,75.00
2017-09-29T21:06:38.560Z,75.00
2017-09-29T21:09:12.204Z,75.00
2017-09-29T21:11:45.945Z,75.00
2017-09-29T21:14:19.538Z,75.00
2017-09-29T21:16:53.127Z,75.10
2017-09-29T21:19:26.938Z,75.10
2017-09-29T21:22:00.742Z,75.20
2017-09-29T21:24:34.346Z,75.20
2017-09-29T21:27:08.042Z,75.30
2017-09-29T21:29:41.542Z,75.50
2017-09-29T21:32:16.894Z,75.40
2017-09-29T21:34:50.522Z,75.50
2017-09-29T21:37:24.081Z,75.60
2017-09-29T21:39:58.608Z,76.10
2017-09-29T21:42:32.134Z,75.70
2017-09-29T21:45:05.927Z,75.60
2017-09-29T21:47:39.662Z,75.70
2017-09-29T21:50:13.180Z,75.70
2017-09-29T21:52:46.804Z,75.70
2017-09-29T21:55:20.429Z,75.60
2017-09-29T21:57:53.921Z,75.70
2017-09-29T22:00:27.517Z,75.70
2017-09-29T22:03:01.335Z,75.70
2017-09-29T22:05:36.537Z,75.70
2017-09-29T22:08:10.215Z,75.60
2017-09-29T22:10:43.865Z,75.60
2017-09-29T22:13:17.485Z,75.70
2017-09-29T22:15:51.180Z,75.80
2017-09-29T22:18:25.494Z,75.70
2017-09-29T22:20:59.197Z,75.70
2017-09-29T22:23:33.718Z,75.60
2017-09-29T22:26:08.122Z,75.60
2017-09-29T22:28:41.744Z,75.60
2017-09-29T22:31:15.439Z,75.80
2017-09-29T22:33:49.317Z,76.00
2017-09-29T22:36:23.084Z,75.80
2017-09-29T22:38:57.310Z,75.80
2017-09-29T22:41:30.870Z,75.90
2017-09-29T22:44:05.386Z,76.80
2017-09-29T22:46:38.895Z,75.90
2017-09-29T22:49:12.803Z,76.00
2017-09-29T22:51:46.403Z,76.00
2017-09-29T22:54:20.174Z,75.90
2017-09-29T22:56:53.802Z,76.00
2017-09-29T22:59:27.382Z,76.00
2017-09-29T23:02:01.155Z,76.10
2017-09-29T23:04:34.702Z,76.80
2017-09-29T23:07:08.414Z,76.10
2017-09-29T23:09:42.010Z,76.20
2017-09-29T23:12:16.486Z,76.20
2017-09-29T23:14:50.118Z,76.10
2017-09-29T23:17:23.695Z,76.10
2017-09-29T23:19:57.201Z,76.10
2017-09-29T23:22:30.943Z,76.10
2017-09-29T23:25:04.759Z,76.00
2017-09-29T23:27:38.444Z,76.00
2017-09-29T23:30:12.110Z,75.90
2017-09-29T23:32:45.747Z,75.80
2017-09-29T23:35:19.360Z,76.10
2017-09-29T23:37:53.947Z,75.90
2017-09-29T23:40:27.574Z,75.90
2017-09-29T23:43:01.563Z,75.90
2017-09-29T23:45:35.301Z,75.90
2017-09-29T23:48:08.765Z,75.90
2017-09-29T23:50:43.111Z,75.80
2017-09-29T23:53:18.371Z,75.80
2017-09-29T23:55:52.154Z,75.80
2017-09-29T23:58:25.849Z,75.90
